Time;durP1;ratioP1;P1;durP2;ratioP2;P2;SDS_P1;SDS_P2;PMS_P1;PMS_P2;Temp;Humidity;BMP_temperature;BMP_pressure;BME280_temperature;BME280_humidity;BME280_pressure;Samples;Min_cycle;Max_cycle;Signal;HPM_P1;HPM_P2
2021/10/30 00:00:58;;;;;;;67.17;36.25;;;;;;;3.23;100.00;101629.21;1738351;82;21410;-76
2021/10/30 00:04:04;;;;;;;61.88;37.03;;;;;;;3.22;100.00;101627.97;1738439;82;21311;-76
2021/10/30 00:07:10;;;;;;;65.17;36.90;;;;;;;3.18;100.00;101626.42;1739758;82;21312;-76
2021/10/30 00:10:16;;;;;;;62.70;36.35;;;;;;;3.15;100.00;101622.55;1739799;82;21307;-76
2021/10/30 00:13:20;;;;;;;69.35;39.92;;;;;;;3.13;100.00;101628.55;1739834;82;21319;-76
2021/10/30 00:16:26;;;;;;;72.00;39.75;;;;;;;3.10;100.00;101630.08;1739844;82;21228;-76
2021/10/30 00:19:32;;;;;;;64.03;34.15;;;;;;;3.06;100.00;101626.72;1739783;82;21232;-76
2021/10/30 00:22:37;;;;;;;66.85;39.35;;;;;;;3.04;100.00;101623.23;1738668;82;21879;-76
2021/10/30 00:25:42;;;;;;;68.35;38.25;;;;;;;3.00;100.00;101621.19;1739724;82;21359;-76
2021/10/30 00:28:48;;;;;;;64.62;37.85;;;;;;;2.97;100.00;101617.84;1738500;82;21310;-76
2021/10/30 00:31:55;;;;;;;67.42;38.55;;;;;;;2.94;100.00;101620.72;1739286;82;21382;-76
2021/10/30 00:35:01;;;;;;;63.13;36.50;;;;;;;2.92;100.00;101625.36;1738350;82;21831;-76
2021/10/30 00:38:06;;;;;;;64.97;36.70;;;;;;;2.88;100.00;101623.33;1738232;82;21216;-76
2021/10/30 00:41:13;;;;;;;52.90;32.35;;;;;;;2.84;100.00;101623.61;1739574;82;21363;-76
2021/10/30 00:44:18;;;;;;;49.63;30.62;;;;;;;2.78;100.00;101624.38;1739863;82;22075;-76
2021/10/30 00:47:23;;;;;;;63.30;36.88;;;;;;;2.72;100.00;101626.08;1739671;82;21318;-76
2021/10/30 00:50:29;;;;;;;59.83;36.25;;;;;;;2.68;100.00;101621.86;1739775;82;21879;-76
2021/10/30 00:53:39;;;;;;;60.45;34.67;;;;;;;2.67;100.00;101629.55;1739284;82;21224;-76
2021/10/30 00:56:44;;;;;;;56.20;32.80;;;;;;;2.66;100.00;101621.55;1739980;82;21875;-76
2021/10/30 00:59:50;;;;;;;53.08;32.93;;;;;;;2.67;100.00;101619.23;1739665;82;21863;-76
2021/10/30 01:02:56;;;;;;;61.00;36.53;;;;;;;2.68;100.00;101620.50;1738802;82;21185;-76
2021/10/30 01:06:01;;;;;;;56.70;34.38;;;;;;;2.65;100.00;101611.22;1739720;82;21252;-76
2021/10/30 01:09:07;;;;;;;65.62;35.35;;;;;;;2.64;100.00;101620.30;1739072;82;21245;-76
2021/10/30 01:12:14;;;;;;;53.95;32.15;;;;;;;2.63;100.00;101624.42;1738150;82;21795;-76
2021/10/30 01:15:21;;;;;;;61.58;37.85;;;;;;;2.60;100.00;101626.84;1739703;82;21589;-76
2021/10/30 01:18:26;;;;;;;61.95;38.95;;;;;;;2.55;100.00;101626.27;1738361;82;21334;-76
2021/10/30 01:21:34;;;;;;;60.05;33.78;;;;;;;2.50;100.00;101625.67;1739683;82;21367;-76
2021/10/30 01:24:40;;;;;;;55.73;33.38;;;;;;;2.47;100.00;101629.41;1739078;82;21772;-76
2021/10/30 01:27:46;;;;;;;45.43;28.25;;;;;;;2.43;100.00;101629.69;1739769;82;21193;-76
2021/10/30 01:30:51;;;;;;;51.02;31.30;;;;;;;2.40;100.00;101631.20;1739550;82;21315;-76
2021/10/30 01:33:58;;;;;;;54.50;32.20;;;;;;;2.34;100.00;101639.69;1738806;82;21390;-76
2021/10/30 01:37:03;;;;;;;49.55;30.65;;;;;;;2.28;100.00;101639.58;1740166;82;21320;-76
2021/10/30 01:40:02;;;;;;;56.63;33.38;;;;;;;2.26;100.00;101646.42;1740666;82;21312;-76
2021/10/30 01:43:10;;;;;;;53.15;31.40;;;;;;;2.22;100.00;101644.86;1739069;82;21367;-76
2021/10/30 01:46:15;;;;;;;49.80;28.42;;;;;;;2.17;100.00;101640.22;1739688;82;21854;-76
2021/10/30 01:49:19;;;;;;;46.60;29.48;;;;;;;2.13;100.00;101646.75;1739738;82;21303;-76
2021/10/30 01:52:25;;;;;;;43.25;29.25;;;;;;;2.12;100.00;101647.72;1739821;82;22660;-75
2021/10/30 01:55:31;;;;;;;52.27;32.63;;;;;;;2.12;100.00;101648.16;1736582;82;21331;-76
2021/10/30 01:58:36;;;;;;;53.73;31.85;;;;;;;2.14;100.00;101643.56;1771070;81;21302;-76
2021/10/30 02:01:42;;;;;;;50.65;33.50;;;;;;;2.13;100.00;101646.75;1733223;82;21900;-76
2021/10/30 02:04:50;;;;;;;52.35;33.80;;;;;;;2.10;100.00;101645.56;1771128;81;21377;-76
2021/10/30 02:07:55;;;;;;;55.23;34.27;;;;;;;2.07;100.00;101643.52;1734298;82;21197;-76
2021/10/30 02:11:01;;;;;;;52.25;31.20;;;;;;;2.04;100.00;101649.98;1769533;81;21256;-76
2021/10/30 02:14:06;;;;;;;50.63;33.63;;;;;;;2.00;100.00;101641.19;1733332;82;21347;-76
2021/10/30 02:17:12;;;;;;;53.23;32.40;;;;;;;1.98;100.00;101649.00;1771101;81;21176;-76
2021/10/30 02:20:19;;;;;;;49.65;31.33;;;;;;;1.95;100.00;101651.86;1734206;82;21181;-76
2021/10/30 02:23:23;;;;;;;49.03;30.48;;;;;;;1.91;100.00;101652.98;1770833;81;21192;-76
2021/10/30 02:26:29;;;;;;;49.80;31.20;;;;;;;1.89;100.00;101664.37;1733663;82;21411;-76
2021/10/30 02:29:34;;;;;;;47.70;31.15;;;;;;;1.88;100.00;101666.16;1771109;81;21288;-76
2021/10/30 02:32:40;;;;;;;55.63;33.83;;;;;;;1.87;100.00;101671.17;1734253;82;21300;-76
2021/10/30 02:35:45;;;;;;;50.58;32.42;;;;;;;1.86;100.00;101670.80;1771031;81;21184;-76
2021/10/30 02:38:50;;;;;;;52.25;32.20;;;;;;;1.89;100.00;101669.28;1771107;81;21300;-76
2021/10/30 02:41:56;;;;;;;52.70;32.78;;;;;;;1.92;100.00;101676.31;1734307;82;21870;-76
2021/10/30 02:45:03;;;;;;;58.17;31.42;;;;;;;1.91;100.00;101677.27;1769854;81;21617;-75
2021/10/30 02:48:10;;;;;;;53.38;31.90;;;;;;;1.90;100.00;101672.36;1734192;82;21347;-76
2021/10/30 02:51:18;;;;;;;55.88;33.75;;;;;;;1.92;100.00;101679.01;1733061;82;21856;-75
2021/10/30 02:54:23;;;;;;;58.25;32.67;;;;;;;1.91;100.00;101673.23;1770283;81;22577;-76
2021/10/30 02:57:30;;;;;;;57.30;32.58;;;;;;;1.90;100.00;101675.55;1769186;81;21937;-76
2021/10/30 03:00:36;;;;;;;49.77;32.48;;;;;;;1.85;100.00;101676.29;1770720;80;21276;-76
2021/10/30 03:03:41;;;;;;;52.13;31.93;;;;;;;1.79;100.00;101672.11;1734095;82;21308;-76
2021/10/30 03:06:47;;;;;;;44.95;29.85;;;;;;;1.76;100.00;101676.33;1771145;81;21839;-76
2021/10/30 03:09:54;;;;;;;50.75;31.73;;;;;;;1.71;100.00;101673.89;1770912;81;21827;-76
2021/10/30 03:12:59;;;;;;;53.15;32.13;;;;;;;1.62;100.00;101674.40;1771202;81;21287;-76
2021/10/30 03:16:04;;;;;;;52.53;31.45;;;;;;;1.55;100.00;101679.73;1734190;82;21209;-76
2021/10/30 03:19:10;;;;;;;52.20;32.23;;;;;;;1.50;100.00;101679.11;1770974;81;21342;-76
2021/10/30 03:22:15;;;;;;;54.93;33.45;;;;;;;1.47;100.00;101686.05;1734350;82;21732;-76
2021/10/30 03:25:21;;;;;;;50.12;30.75;;;;;;;1.41;100.00;101687.26;1769689;81;21362;-76
2021/10/30 03:28:26;;;;;;;56.58;34.48;;;;;;;1.38;100.00;101685.20;1732926;82;21816;-76
2021/10/30 03:31:32;;;;;;;47.40;29.52;;;;;;;1.35;100.00;101686.22;1771056;81;21299;-76
2021/10/30 03:34:38;;;;;;;55.38;35.38;;;;;;;1.33;100.00;101683.23;1733684;82;21224;-76
2021/10/30 03:37:45;;;;;;;48.40;31.93;;;;;;;1.31;100.00;101687.34;1771092;81;21307;-76
2021/10/30 03:40:50;;;;;;;52.55;33.05;;;;;;;1.31;100.00;101683.30;1734199;82;21340;-76
2021/10/30 03:43:55;;;;;;;55.92;34.13;;;;;;;1.32;100.00;101672.03;1771331;81;21838;-76
2021/10/30 03:47:01;;;;;;;60.23;34.65;;;;;;;1.35;100.00;101675.92;1771740;81;21366;-75
2021/10/30 03:50:07;;;;;;;66.80;34.83;;;;;;;1.38;100.00;101677.11;1732944;82;21196;-76
2021/10/30 03:53:13;;;;;;;61.70;35.05;;;;;;;1.42;100.00;101680.03;1769637;81;21302;-76
2021/10/30 03:56:12;;;;;;;59.60;36.63;;;;;;;1.46;100.00;101686.52;1733121;82;21213;-76
2021/10/30 03:59:18;;;;;;;44.25;25.77;;;;;;;1.50;100.00;101682.67;1764141;80;21217;-76
2021/10/30 04:02:23;;;;;;;49.33;31.73;;;;;;;1.53;100.00;101693.78;1762646;81;21189;-76
2021/10/30 04:05:29;;;;;;;50.98;32.55;;;;;;;1.51;100.00;101687.14;1714450;83;21311;-76
2021/10/30 04:08:35;;;;;;;50.38;32.50;;;;;;;1.54;100.00;101691.47;1715137;83;21308;-75
2021/10/30 04:11:43;;;;;;;51.73;32.15;;;;;;;1.53;100.00;101691.09;1713696;83;21196;-75
2021/10/30 04:14:50;;;;;;;57.10;35.75;;;;;;;1.55;100.00;101698.60;1714947;83;21764;-75
2021/10/30 04:17:55;;;;;;;50.92;32.53;;;;;;;1.59;100.00;101708.75;1715139;83;21327;-75
2021/10/30 04:21:00;;;;;;;54.08;33.90;;;;;;;1.60;100.00;101706.44;1715034;83;21315;-76
2021/10/30 04:24:06;;;;;;;53.45;32.33;;;;;;;1.61;100.00;101709.55;1715205;83;21309;-75
2021/10/30 04:27:12;;;;;;;51.45;34.38;;;;;;;1.62;100.00;101707.25;1714119;83;21331;-75
2021/10/30 04:30:17;;;;;;;48.78;30.77;;;;;;;1.61;100.00;101715.82;1715158;83;21319;-75
2021/10/30 04:33:23;;;;;;;53.90;31.65;;;;;;;1.58;100.00;101711.93;1714955;83;21244;-76
2021/10/30 04:36:30;;;;;;;56.08;33.08;;;;;;;1.57;100.00;101722.33;1713810;83;21914;-75
2021/10/30 04:39:36;;;;;;;48.95;31.25;;;;;;;1.56;100.00;101721.08;1715141;83;21204;-75
2021/10/30 04:42:41;;;;;;;52.45;32.50;;;;;;;1.56;100.00;101726.47;1714264;83;21332;-75
2021/10/30 04:45:48;;;;;;;49.88;29.90;;;;;;;1.56;100.00;101725.99;1714541;83;21324;-75
2021/10/30 04:48:53;;;;;;;45.50;29.25;;;;;;;1.58;100.00;101733.98;1715085;83;21217;-75
2021/10/30 04:51:58;;;;;;;40.50;25.88;;;;;;;1.57;100.00;101729.55;1715130;83;21363;-75
2021/10/30 04:55:05;;;;;;;52.38;31.57;;;;;;;1.59;100.00;101736.59;1715143;83;21943;-75
2021/10/30 04:58:10;;;;;;;53.23;32.93;;;;;;;1.61;100.00;101735.18;1714186;83;21224;-75
2021/10/30 05:01:16;;;;;;;49.20;30.92;;;;;;;1.62;100.00;101729.69;1740777;82;21205;-75
2021/10/30 05:04:22;;;;;;;49.80;31.60;;;;;;;1.64;100.00;101733.16;1740828;82;21386;-75
2021/10/30 05:07:29;;;;;;;44.35;28.38;;;;;;;1.68;100.00;101738.78;1740767;82;21240;-75
2021/10/30 05:10:34;;;;;;;51.65;30.52;;;;;;;1.72;100.00;101739.49;1742038;82;21189;-75
2021/10/30 05:13:41;;;;;;;48.95;31.93;;;;;;;1.77;100.00;101747.72;1740585;82;21264;-75
2021/10/30 05:16:49;;;;;;;52.25;33.20;;;;;;;1.82;100.00;101747.47;1740534;82;21272;-75
2021/10/30 05:19:54;;;;;;;51.37;31.00;;;;;;;1.86;100.00;101754.92;1742170;82;21342;-76
2021/10/30 05:23:00;;;;;;;47.15;28.25;;;;;;;1.92;100.00;101745.99;1741963;82;21314;-75
2021/10/30 05:26:06;;;;;;;55.88;33.38;;;;;;;1.98;100.00;101752.90;1740960;82;21315;-75
2021/10/30 05:29:11;;;;;;;42.13;27.13;;;;;;;2.05;100.00;101761.03;1741864;82;21331;-76
2021/10/30 05:32:17;;;;;;;46.95;29.40;;;;;;;2.13;100.00;101757.42;1742122;82;21355;-75
2021/10/30 05:35:40;;;;;;;52.88;33.15;;;;;;;2.19;100.00;101760.25;1742211;82;21334;-76
2021/10/30 05:38:52;;;;;;;49.40;31.52;;;;;;;2.27;100.00;101753.45;1740631;82;21606;-75
2021/10/30 05:41:58;;;;;;;53.05;34.20;;;;;;;2.40;100.00;101763.53;1742259;82;21787;-75
2021/10/30 05:45:03;;;;;;;60.95;35.10;;;;;;;2.51;100.00;101762.45;1742299;82;21904;-76
2021/10/30 05:48:10;;;;;;;61.00;33.88;;;;;;;2.65;100.00;101761.17;1742208;82;21323;-76
2021/10/30 05:51:15;;;;;;;52.03;31.77;;;;;;;2.80;100.00;101764.30;1689815;84;21312;-76
2021/10/30 05:54:21;;;;;;;54.10;34.60;;;;;;;2.96;100.00;101768.30;1711034;84;21181;-76
2021/10/30 05:57:26;;;;;;;50.85;33.88;;;;;;;3.09;100.00;101773.86;1710065;84;21411;-76
2021/10/30 06:00:32;;;;;;;45.25;31.00;;;;;;;3.22;100.00;101768.09;1705830;84;21308;-76
2021/10/30 06:03:38;;;;;;;56.42;35.15;;;;;;;3.35;100.00;101772.77;1771165;81;21308;-76
2021/10/30 06:06:44;;;;;;;58.35;33.83;;;;;;;3.48;100.00;101776.42;1770655;81;21370;-76
2021/10/30 06:09:50;;;;;;;50.85;32.70;;;;;;;3.59;100.00;101775.30;1734076;82;21347;-76
2021/10/30 06:12:55;;;;;;;51.63;34.30;;;;;;;3.71;100.00;101775.86;1771175;81;21243;-76
2021/10/30 06:16:00;;;;;;;54.10;35.28;;;;;;;3.81;100.00;101777.05;1734321;82;21347;-76
2021/10/30 06:19:06;;;;;;;50.03;32.48;;;;;;;3.94;100.00;101773.55;1771166;81;21346;-76
2021/10/30 06:22:13;;;;;;;56.30;34.20;;;;;;;4.07;100.00;101770.44;1769897;81;21830;-76
2021/10/30 06:25:21;;;;;;;60.83;34.60;;;;;;;4.20;100.00;101775.45;1732992;82;21193;-76
2021/10/30 06:28:27;;;;;;;57.70;36.95;;;;;;;4.34;100.00;101778.12;1770160;81;21343;-76
2021/10/30 06:31:32;;;;;;;57.38;36.08;;;;;;;4.46;100.00;101775.08;1732918;82;21355;-76
2021/10/30 06:34:38;;;;;;;52.30;32.42;;;;;;;4.59;100.00;101772.44;1771050;81;21200;-76
2021/10/30 06:37:45;;;;;;;50.70;33.30;;;;;;;4.73;100.00;101776.45;1769723;81;21319;-76
2021/10/30 06:40:50;;;;;;;50.00;31.48;;;;;;;4.88;100.00;101778.11;1734463;82;21296;-76
2021/10/30 06:43:57;;;;;;;53.42;33.13;;;;;;;5.03;100.00;101773.48;1769792;81;21322;-76
2021/10/30 06:47:02;;;;;;;52.03;28.95;;;;;;;5.18;100.00;101781.09;1734072;82;21880;-76
2021/10/30 06:50:08;;;;;;;42.15;27.40;;;;;;;5.33;100.00;101777.30;1771218;81;21228;-76
2021/10/30 06:53:14;;;;;;;49.90;30.45;;;;;;;5.49;100.00;101778.94;1734236;82;21185;-76
2021/10/30 06:56:20;;;;;;;49.85;31.45;;;;;;;5.65;100.00;101778.25;1771081;81;21165;-76
2021/10/30 06:59:25;;;;;;;47.38;29.95;;;;;;;5.83;100.00;101787.80;1733756;82;22583;-76
2021/10/30 07:02:31;;;;;;;48.65;32.10;;;;;;;6.02;100.00;101781.05;1775235;80;21310;-76
2021/10/30 07:05:37;;;;;;;51.90;31.17;;;;;;;6.19;100.00;101777.98;1742537;82;21319;-76
2021/10/30 07:08:42;;;;;;;55.23;33.60;;;;;;;6.34;100.00;101787.72;1741021;82;21851;-76
2021/10/30 07:11:47;;;;;;;50.92;32.53;;;;;;;6.50;100.00;101782.03;1742146;82;21350;-76
2021/10/30 07:14:55;;;;;;;55.40;33.15;;;;;;;6.65;100.00;101782.73;1740725;82;21323;-76
2021/10/30 07:18:01;;;;;;;60.92;35.50;;;;;;;6.80;98.70;101775.27;1743180;82;21303;-76
2021/10/30 07:21:07;;;;;;;56.90;32.38;;;;;;;6.93;97.45;101773.84;1742567;82;22495;-76
2021/10/30 07:24:12;;;;;;;55.98;31.42;;;;;;;7.05;96.51;101774.25;1742194;82;21962;-76
2021/10/30 07:27:17;;;;;;;61.80;32.35;;;;;;;7.16;95.72;101770.23;1742151;82;21323;-76
2021/10/30 07:30:23;;;;;;;54.33;31.87;;;;;;;7.28;95.23;101769.25;1741370;82;21335;-76
2021/10/30 07:33:29;;;;;;;67.10;35.65;;;;;;;7.41;94.31;101767.31;1742033;82;21299;-76
2021/10/30 07:36:35;;;;;;;91.28;43.17;;;;;;;7.52;93.74;101766.45;1741973;82;21863;-76
2021/10/30 07:39:40;;;;;;;71.40;36.30;;;;;;;7.65;92.94;101766.36;1742031;82;21314;-76
2021/10/30 07:42:49;;;;;;;69.55;36.70;;;;;;;7.76;92.23;101766.86;1742791;82;21317;-76
2021/10/30 07:45:54;;;;;;;73.05;38.48;;;;;;;7.86;91.16;101764.66;1742368;82;21390;-76
2021/10/30 07:49:01;;;;;;;74.45;35.83;;;;;;;7.96;90.70;101773.45;1741045;82;21197;-76
2021/10/30 07:52:08;;;;;;;64.58;32.50;;;;;;;8.04;90.11;101768.23;1741930;82;21197;-76
2021/10/30 07:55:14;;;;;;;54.77;32.53;;;;;;;8.16;89.81;101761.79;1742137;82;21299;-76
2021/10/30 07:58:20;;;;;;;73.00;36.17;;;;;;;8.30;89.42;101766.11;1741916;82;21582;-76
2021/10/30 08:01:26;;;;;;;72.80;38.73;;;;;;;8.46;89.32;101769.32;1741990;82;21354;-76
2021/10/30 08:04:31;;;;;;;74.25;36.15;;;;;;;8.60;88.31;101762.72;1739683;82;21896;-76
2021/10/30 08:07:38;;;;;;;88.52;39.30;;;;;;;8.72;87.68;101761.70;1739620;82;21324;-76
2021/10/30 08:10:44;;;;;;;86.45;38.73;;;;;;;8.85;87.19;101758.81;1713533;83;21195;-76
2021/10/30 08:13:49;;;;;;;76.37;38.92;;;;;;;8.99;86.68;101757.61;1739789;82;21165;-76
2021/10/30 08:16:55;;;;;;;63.70;32.42;;;;;;;9.10;86.00;101752.98;1738518;82;21331;-76
2021/10/30 08:20:01;;;;;;;70.62;34.63;;;;;;;9.19;85.12;101763.11;1738461;82;21342;-76
2021/10/30 08:23:06;;;;;;;64.92;32.13;;;;;;;9.32;84.66;101754.73;1739900;82;21261;-75
2021/10/30 08:26:12;;;;;;;49.88;27.55;;;;;;;9.46;84.24;101750.30;1739674;82;21303;-76
2021/10/30 08:29:18;;;;;;;46.92;25.10;;;;;;;9.61;83.18;101756.78;1739057;82;21327;-76
2021/10/30 08:32:24;;;;;;;45.43;23.92;;;;;;;9.77;81.99;101758.52;1738396;82;21213;-76
2021/10/30 08:35:29;;;;;;;35.95;19.75;;;;;;;9.93;81.41;101756.16;1739852;82;21360;-76
2021/10/30 08:38:35;;;;;;;39.92;20.55;;;;;;;10.05;81.10;101756.05;1739440;82;21351;-76
2021/10/30 08:41:42;;;;;;;32.75;18.87;;;;;;;10.14;79.64;101757.96;1739591;82;22603;-76
2021/10/30 08:44:47;;;;;;;34.63;20.08;;;;;;;10.20;78.83;101749.19;1739786;82;21318;-76
2021/10/30 08:47:54;;;;;;;34.33;16.67;;;;;;;10.32;77.60;101746.76;1739730;82;21197;-76
2021/10/30 08:50:58;;;;;;;32.42;16.15;;;;;;;10.44;76.59;101748.86;1739757;82;21316;-76
2021/10/30 08:54:03;;;;;;;30.85;16.30;;;;;;;10.56;74.68;101750.48;1739582;82;21240;-76
2021/10/30 08:57:08;;;;;;;26.45;15.50;;;;;;;10.67;74.07;101746.23;1714233;83;21181;-76
2021/10/30 09:00:30;;;;;;;23.00;14.15;;;;;;;10.72;73.18;101745.30;1738756;82;21315;-76
2021/10/30 09:03:36;;;;;;;28.62;15.78;;;;;;;10.83;72.06;101751.67;1737725;82;21217;-76
2021/10/30 09:06:46;;;;;;;25.57;14.07;;;;;;;10.90;71.94;101749.57;1769782;81;21173;-76
2021/10/30 09:09:54;;;;;;;35.05;15.08;;;;;;;10.96;71.44;101748.13;1733638;82;21316;-77
2021/10/30 09:13:03;;;;;;;25.25;14.13;;;;;;;11.09;70.11;101741.00;1771145;81;21798;-76
2021/10/30 09:16:09;;;;;;;33.80;13.85;;;;;;;11.20;68.89;101735.39;1771069;81;21287;-75
2021/10/30 09:19:17;;;;;;;22.30;11.90;;;;;;;11.27;66.77;101735.15;1734003;82;21346;-75
2021/10/30 09:22:27;;;;;;;26.60;14.28;;;;;;;11.33;65.97;101737.30;1755283;81;21296;-75
2021/10/30 09:25:32;;;;;;;19.27;11.28;;;;;;;11.41;65.74;101744.79;1771630;81;21298;-75
2021/10/30 09:28:50;;;;;;;20.00;12.13;;;;;;;11.46;63.57;101731.00;1734452;82;21304;-75
2021/10/30 09:31:51;;;;;;;23.75;12.98;;;;;;;11.47;63.24;101733.23;1734032;82;21605;-75
2021/10/30 09:34:57;;;;;;;18.30;10.53;;;;;;;11.52;62.84;101726.29;1771117;81;21694;-75
2021/10/30 09:38:03;;;;;;;41.37;18.92;;;;;;;11.58;61.61;101729.48;1771044;81;21342;-75
2021/10/30 09:41:10;;;;;;;46.92;23.27;;;;;;;11.64;62.31;101732.98;1732880;82;21887;-74
2021/10/30 09:44:32;;;;;;;24.87;11.85;;;;;;;11.69;62.39;101737.00;1771039;81;21769;-75
2021/10/30 09:47:38;;;;;;;33.67;15.98;;;;;;;11.70;61.06;101729.13;1733056;82;21207;-75
2021/10/30 09:50:43;;;;;;;31.35;14.50;;;;;;;11.71;61.19;101722.63;1770214;81;21298;-75
2021/10/30 09:53:50;;;;;;;22.87;12.10;;;;;;;11.70;61.72;101714.56;1732976;82;22609;-75
2021/10/30 09:56:56;;;;;;;23.00;11.45;;;;;;;11.66;61.87;101722.72;1769732;81;21185;-75
2021/10/30 10:00:09;;;;;;;19.62;11.22;;;;;;;11.62;62.01;101716.70;1735277;82;21831;-75
2021/10/30 10:03:14;;;;;;;26.12;12.58;;;;;;;11.70;62.06;101703.09;1770313;81;21330;-75
2021/10/30 10:06:25;;;;;;;18.65;9.73;;;;;;;11.79;61.54;101705.44;1771123;81;21890;-76
2021/10/30 10:09:31;;;;;;;12.43;7.90;;;;;;;11.81;61.47;101703.44;1769575;81;21366;-76
2021/10/30 10:12:36;;;;;;;14.85;6.83;;;;;;;11.85;60.70;101704.86;1771165;81;21228;-76
2021/10/30 10:15:42;;;;;;;13.93;7.28;;;;;;;11.89;59.01;101706.30;1771812;81;21183;-75
2021/10/30 10:18:48;;;;;;;16.37;8.13;;;;;;;11.90;58.67;101699.82;1717089;82;21209;-75
2021/10/30 10:21:55;;;;;;;16.80;7.62;;;;;;;11.92;59.16;101698.29;1771468;81;21696;-75
2021/10/30 10:25:00;;;;;;;11.48;7.03;;;;;;;12.01;58.44;101699.61;1719160;82;21297;-74
2021/10/30 10:28:28;;;;;;;14.75;6.37;;;;;;;12.03;57.88;101693.45;1753950;81;21307;-75
2021/10/30 10:31:34;;;;;;;14.85;7.40;;;;;;;12.05;57.81;101685.61;1770002;81;21311;-74
2021/10/30 10:34:44;;;;;;;10.10;5.97;;;;;;;12.17;57.43;101687.11;1734301;82;21339;-75
2021/10/30 10:37:57;;;;;;;10.10;5.75;;;;;;;12.21;56.92;101685.78;1734488;82;21880;-74
2021/10/30 10:41:03;;;;;;;9.98;5.78;;;;;;;12.17;56.99;101671.51;1769495;81;21364;-75
2021/10/30 10:44:09;;;;;;;11.53;6.47;;;;;;;12.18;56.76;101677.34;1770893;81;21287;-74
2021/10/30 10:47:14;;;;;;;9.75;5.97;;;;;;;12.22;56.39;101673.79;1732875;82;21692;-74
2021/10/30 10:50:35;;;;;;;9.08;5.80;;;;;;;12.26;56.18;101680.70;1771175;81;21248;-74
2021/10/30 10:53:40;;;;;;;8.08;5.15;;;;;;;12.29;55.77;101672.17;1734337;82;21370;-75
2021/10/30 10:57:08;;;;;;;8.95;5.75;;;;;;;12.30;55.75;101672.52;1734239;82;21713;-75
2021/10/30 11:00:16;;;;;;;12.37;5.85;;;;;;;12.28;55.82;101674.05;1770883;80;21773;-75
2021/10/30 11:03:21;;;;;;;7.15;5.25;;;;;;;12.24;56.22;101670.41;1734100;82;21336;-75
2021/10/30 11:06:43;;;;;;;20.55;8.95;;;;;;;12.26;56.23;101677.95;1679989;82;21268;-74
2021/10/30 11:09:58;;;;;;;12.58;6.35;;;;;;;12.27;56.72;101671.44;1742166;82;21842;-75
2021/10/30 11:13:21;;;;;;;8.50;5.22;;;;;;;12.26;56.78;101670.58;1742682;82;21257;-74
2021/10/30 11:16:36;;;;;;;11.70;5.95;;;;;;;12.27;56.74;101659.09;1742334;82;21307;-74
2021/10/30 11:19:41;;;;;;;11.12;6.00;;;;;;;12.31;56.05;101655.03;1741085;82;21326;-75
2021/10/30 11:23:05;;;;;;;11.18;5.92;;;;;;;12.43;55.81;101660.66;1741917;82;21319;-75
2021/10/30 11:26:19;;;;;;;11.75;6.67;;;;;;;12.51;55.25;101658.48;1741925;82;21299;-75
2021/10/30 11:29:26;;;;;;;8.08;5.90;;;;;;;12.54;55.58;101652.70;1743149;82;21803;-75
2021/10/30 11:32:26;;;;;;;9.95;6.20;;;;;;;12.52;55.71;101650.64;1741147;82;21323;-75
2021/10/30 11:35:31;;;;;;;9.45;5.50;;;;;;;12.49;55.75;101654.54;1742022;82;21248;-75
2021/10/30 11:38:53;;;;;;;9.83;5.75;;;;;;;12.49;55.46;101648.19;1742211;82;21318;-75
2021/10/30 11:41:58;;;;;;;13.75;6.12;;;;;;;12.52;54.90;101647.89;1741399;82;21339;-75
2021/10/30 11:45:05;;;;;;;10.68;6.72;;;;;;;12.54;54.89;101646.70;1742069;82;21236;-75
2021/10/30 11:48:11;;;;;;;11.65;6.75;;;;;;;12.57;54.89;101648.28;1742184;82;21391;-74
2021/10/30 11:51:16;;;;;;;15.08;8.75;;;;;;;12.58;54.95;101650.52;1741929;82;21302;-77
2021/10/30 11:54:23;;;;;;;11.73;8.23;;;;;;;12.64;54.87;101653.98;1749601;81;21292;-77
2021/10/30 11:57:28;;;;;;;14.90;9.15;;;;;;;12.63;54.48;101646.27;1743059;81;21319;-75
2021/10/30 12:00:36;;;;;;;12.68;7.55;;;;;;;12.64;54.71;101632.03;1765249;81;21336;-76
2021/10/30 12:03:44;;;;;;;12.70;7.10;;;;;;;12.63;54.90;101637.17;1715085;82;21233;-76
2021/10/30 12:07:04;;;;;;;9.63;6.12;;;;;;;12.62;54.05;101634.09;1710397;83;21231;-76
2021/10/30 12:10:12;;;;;;;9.90;5.92;;;;;;;12.63;53.88;101628.94;1748358;82;21172;-76
2021/10/30 12:13:17;;;;;;;9.78;5.50;;;;;;;12.63;53.63;101620.19;1714943;83;21841;-76
2021/10/30 12:16:24;;;;;;;16.70;5.72;;;;;;;12.66;53.58;101619.89;1745814;82;21215;-76
2021/10/30 12:19:34;;;;;;;10.08;5.60;;;;;;;12.67;53.41;101620.23;1777731;80;21271;-76
2021/10/30 12:22:47;;;;;;;8.65;5.12;;;;;;;12.69;53.28;101624.18;1777749;80;21347;-76
2021/10/30 12:25:53;;;;;;;8.20;5.15;;;;;;;12.68;52.82;101619.72;1776949;80;21303;-76
2021/10/30 12:28:58;;;;;;;7.37;5.17;;;;;;;12.68;52.57;101621.09;1778377;80;21866;-76
2021/10/30 12:32:15;;;;;;;9.65;5.85;;;;;;;12.66;52.33;101622.63;1778172;80;21307;-76
2021/10/30 12:35:35;;;;;;;9.95;5.03;;;;;;;12.68;52.55;101618.34;1777996;80;21331;-77
2021/10/30 12:38:43;;;;;;;8.50;4.67;;;;;;;12.65;51.93;101618.66;1777612;80;21299;-76
2021/10/30 12:41:49;;;;;;;11.75;5.25;;;;;;;12.63;51.70;101613.33;1777826;80;21382;-76
2021/10/30 12:44:59;;;;;;;6.70;4.40;;;;;;;12.63;50.86;101628.94;1778503;80;21224;-76
2021/10/30 12:48:27;;;;;;;10.40;3.80;;;;;;;12.62;51.12;101617.62;1778639;80;21812;-76
2021/10/30 12:51:33;;;;;;;6.42;4.25;;;;;;;12.64;50.96;101621.05;1766610;80;21839;-76
2021/10/30 12:54:40;;;;;;;7.33;4.15;;;;;;;12.62;51.10;101623.97;1765555;80;21288;-76
2021/10/30 12:57:46;;;;;;;6.42;4.28;;;;;;;12.59;50.87;101620.66;1740717;81;21185;-76
2021/10/30 13:00:52;;;;;;;8.50;4.80;;;;;;;12.58;50.71;101621.69;1728828;82;21277;-76
2021/10/30 13:04:16;;;;;;;8.88;4.70;;;;;;;12.57;50.68;101614.48;1728733;82;21725;-76
2021/10/30 13:07:25;;;;;;;7.42;4.60;;;;;;;12.58;50.78;101617.58;1729724;83;21319;-76
2021/10/30 13:10:35;;;;;;;8.40;4.87;;;;;;;12.56;50.54;101621.83;1725510;82;21296;-76
2021/10/30 13:13:39;;;;;;;;;;;;;;;12.54;50.77;101618.39;1729220;83;21864;-76
2021/10/30 13:16:45;;;;;;;9.50;4.85;;;;;;;12.52;50.83;101623.19;1745247;82;20274;-76
2021/10/30 13:19:52;;;;;;;7.70;5.10;;;;;;;12.51;50.96;101621.44;1714557;83;21311;-76
2021/10/30 13:22:57;;;;;;;8.28;5.17;;;;;;;12.50;51.14;101623.33;1711319;84;21244;-75
2021/10/30 13:26:02;;;;;;;7.30;4.97;;;;;;;12.46;51.25;101619.68;1742189;82;21339;-76
2021/10/30 13:29:08;;;;;;;9.28;5.45;;;;;;;12.41;51.48;101614.66;1712560;84;21323;-76
2021/10/30 13:32:14;;;;;;;14.10;5.45;;;;;;;12.36;51.68;101622.50;1742463;82;21304;-76
2021/10/30 13:35:18;;;;;;;11.20;5.95;;;;;;;12.32;51.89;101619.72;1712676;84;21232;-76
2021/10/30 13:38:24;;;;;;;9.18;5.62;;;;;;;12.26;52.07;101619.83;1741610;82;21311;-76
2021/10/30 13:41:29;;;;;;;10.70;6.17;;;;;;;12.23;52.34;101617.90;1711240;84;21245;-76
2021/10/30 13:44:35;;;;;;;11.30;5.72;;;;;;;12.15;52.60;101613.72;1740741;82;21289;-76
2021/10/30 13:47:42;;;;;;;8.63;5.40;;;;;;;12.05;52.79;101617.05;1712565;84;21193;-76
2021/10/30 13:50:49;;;;;;;9.58;5.40;;;;;;;11.97;53.07;101620.55;1741783;82;21323;-76
2021/10/30 13:53:57;;;;;;;8.50;5.35;;;;;;;11.89;53.43;101617.19;1711831;84;21367;-76
2021/10/30 13:57:02;;;;;;;12.30;6.25;;;;;;;11.81;53.85;101618.45;1742252;82;21840;-76
2021/10/30 14:00:09;;;;;;;14.05;7.22;;;;;;;11.72;54.30;101619.36;1712531;84;21353;-76
2021/10/30 14:03:16;;;;;;;10.50;6.58;;;;;;;11.62;54.66;101619.89;1741814;82;21398;-76
2021/10/30 14:06:23;;;;;;;15.25;7.30;;;;;;;11.48;55.14;101615.28;1712131;84;21371;-76
2021/10/30 14:09:29;;;;;;;18.00;6.50;;;;;;;11.38;55.64;101610.33;1739842;82;21334;-76
2021/10/30 14:12:35;;;;;;;12.50;6.55;;;;;;;11.28;55.97;101609.50;1712698;84;21240;-76
2021/10/30 14:15:42;;;;;;;14.53;6.72;;;;;;;11.16;56.15;101609.34;1742052;82;21319;-76